Time;durP1;ratioP1;P1;durP2;ratioP2;P2;SDS_P1;SDS_P2;PMS_P1;PMS_P2;Temp;Humidity;BMP_temperature;BMP_pressure;BME280_temperature;BME280_humidity;BME280_pressure;Samples;Min_cycle;Max_cycle;Signal;HPM_P1;HPM_P2
2023/05/21 00:02:03;;;;;;;12.40;11.23;;;17.20;80.40;;;;;;5053622;28;20442;-57
2023/05/21 00:04:30;;;;;;;12.40;11.20;;;17.20;80.50;;;;;;5053833;28;20449;-57
2023/05/21 00:06:57;;;;;;;11.73;10.53;;;17.20;80.60;;;;;;5053850;28;20456;-57
2023/05/21 00:09:25;;;;;;;14.50;11.00;;;17.20;80.70;;;;;;5053437;28;20461;-58
2023/05/21 00:11:52;;;;;;;12.50;11.30;;;17.10;80.70;;;;;;5053659;28;20485;-58
2023/05/21 00:14:19;;;;;;;11.83;10.60;;;17.20;81.10;;;;;;5053634;28;20453;-58
2023/05/21 00:16:46;;;;;;;12.60;11.30;;;17.10;80.80;;;;;;5053775;28;20456;-58
2023/05/21 00:19:13;;;;;;;12.90;11.60;;;17.10;80.90;;;;;;5053629;28;20458;-58
2023/05/21 00:21:39;;;;;;;12.37;11.07;;;17.10;81.10;;;;;;5053291;28;20808;-58
2023/05/21 00:24:07;;;;;;;12.90;11.53;;;17.10;81.30;;;;;;5053602;28;20544;-58
2023/05/21 00:26:35;;;;;;;12.50;11.23;;;17.00;81.40;;;;;;5053201;28;20971;-58
2023/05/21 00:29:01;;;;;;;13.77;12.00;;;17.00;81.60;;;;;;5053457;28;20457;-58
2023/05/21 00:31:28;;;;;;;12.40;11.20;;;17.00;81.90;;;;;;5053140;28;20999;-57
2023/05/21 00:33:55;;;;;;;15.17;13.17;;;17.00;81.90;;;;;;5053454;28;20928;-57
2023/05/21 00:36:22;;;;;;;13.60;12.20;;;17.00;82.10;;;;;;5053349;28;20470;-56
2023/05/21 00:38:50;;;;;;;15.40;13.03;;;16.90;82.00;;;;;;5053382;28;20450;-56
2023/05/21 00:41:17;;;;;;;14.17;12.67;;;16.90;82.40;;;;;;5053358;28;20453;-56
2023/05/21 00:43:45;;;;;;;13.43;11.70;;;16.90;82.70;;;;;;5053405;28;20448;-56
2023/05/21 00:46:17;;;;;;;14.57;13.07;;;16.80;82.80;;;;;;5053185;28;20466;-56
2023/05/21 00:48:45;;;;;;;13.40;11.60;;;16.80;83.10;;;;;;5052980;28;20922;-56
2023/05/21 00:51:12;;;;;;;14.03;11.73;;;16.80;83.30;;;;;;5053080;28;20481;-56
2023/05/21 00:53:39;;;;;;;13.37;11.97;;;16.80;83.60;;;;;;5053251;28;20452;-56
2023/05/21 00:56:07;;;;;;;13.73;12.53;;;16.70;83.80;;;;;;5053174;28;20499;-57
2023/05/21 00:58:34;;;;;;;13.00;11.80;;;16.70;84.20;;;;;;5053192;28;20449;-56
2023/05/21 01:01:05;;;;;;;12.73;11.33;;;16.70;84.40;;;;;;5053140;28;20446;-56
2023/05/21 01:03:37;;;;;;;13.43;12.23;;;16.60;84.30;;;;;;5053135;28;20436;-56
2023/05/21 01:06:04;;;;;;;15.30;13.63;;;16.60;84.40;;;;;;5053077;28;20516;-57
2023/05/21 01:08:31;;;;;;;13.73;11.97;;;16.60;84.30;;;;;;5052892;28;20450;-57
2023/05/21 01:10:59;;;;;;;15.40;13.80;;;16.60;84.40;;;;;;5053034;28;20492;-57
2023/05/21 01:13:26;;;;;;;13.83;12.43;;;16.50;83.90;;;;;;5053165;28;20507;-57
2023/05/21 01:15:54;;;;;;;13.83;11.83;;;16.50;84.90;;;;;;5057590;28;20985;-57
2023/05/21 01:18:22;;;;;;;13.77;12.47;;;16.40;84.40;;;;;;5057463;28;20449;-57
2023/05/21 01:20:49;;;;;;;15.50;13.10;;;16.40;84.70;;;;;;5057151;28;20445;-57
2023/05/21 01:23:18;;;;;;;15.00;13.60;;;16.40;85.40;;;;;;5057065;28;20449;-57
2023/05/21 01:25:45;;;;;;;14.87;13.27;;;16.40;85.80;;;;;;5056958;28;20868;-56
2023/05/21 01:28:12;;;;;;;15.27;13.77;;;16.40;86.00;;;;;;5056935;28;20453;-56
2023/05/21 01:30:40;;;;;;;14.60;13.20;;;16.30;86.20;;;;;;5056749;28;20480;-56
2023/05/21 01:33:13;;;;;;;14.77;13.37;;;16.30;86.40;;;;;;5056874;28;20460;-56
2023/05/21 01:35:46;;;;;;;14.93;13.23;;;16.30;86.90;;;;;;5056797;28;20465;-57
2023/05/21 01:38:22;;;;;;;15.30;13.73;;;16.20;86.90;;;;;;5056781;28;20434;-57
2023/05/21 01:40:53;;;;;;;14.80;13.17;;;16.30;87.10;;;;;;5056733;28;20439;-57
2023/05/21 01:43:20;;;;;;;16.13;12.90;;;16.20;87.30;;;;;;5056745;28;20446;-57
2023/05/21 01:45:49;;;;;;;14.60;13.20;;;16.30;87.70;;;;;;5056636;28;20465;-57
2023/05/21 01:48:18;;;;;;;13.43;12.23;;;16.30;87.70;;;;;;5056549;28;20503;-57
2023/05/21 01:50:45;;;;;;;14.23;12.83;;;16.20;87.70;;;;;;5056387;28;20571;-56
2023/05/21 01:53:12;;;;;;;17.43;13.17;;;16.20;87.80;;;;;;5056623;28;20453;-57
2023/05/21 01:55:40;;;;;;;13.60;12.23;;;16.20;88.80;;;;;;5056082;28;20804;-57
2023/05/21 01:58:08;;;;;;;15.60;13.93;;;16.20;88.20;;;;;;5056356;28;20478;-57
2023/05/21 02:00:34;;;;;;;15.50;14.00;;;16.20;88.50;;;;;;5056317;28;20473;-57
2023/05/21 02:03:01;;;;;;;15.70;14.10;;;16.20;88.50;;;;;;5056292;28;20449;-57
2023/05/21 02:05:28;;;;;;;15.03;13.53;;;16.20;88.60;;;;;;5056212;28;20544;-57
2023/05/21 02:07:54;;;;;;;15.00;13.40;;;16.20;88.80;;;;;;5055979;28;20449;-57
2023/05/21 02:10:21;;;;;;;13.97;12.57;;;16.20;88.90;;;;;;5056197;28;20433;-57
2023/05/21 02:12:49;;;;;;;15.43;13.87;;;16.20;89.00;;;;;;5055689;28;20484;-57
2023/05/21 02:15:16;;;;;;;14.43;12.77;;;16.20;89.20;;;;;;5055990;28;20505;-57
2023/05/21 02:17:43;;;;;;;15.07;12.90;;;16.20;89.40;;;;;;5056038;28;20476;-57
2023/05/21 02:20:11;;;;;;;16.77;12.60;;;16.20;89.40;;;;;;5055973;28;20449;-57
2023/05/21 02:22:38;;;;;;;14.73;13.37;;;16.20;89.50;;;;;;5055882;28;20450;-57
2023/05/21 02:25:07;;;;;;;14.13;12.77;;;16.20;89.90;;;;;;5055503;28;20538;-57
2023/05/21 02:27:35;;;;;;;11.90;10.80;;;16.20;90.00;;;;;;5055814;28;20446;-57
2023/05/21 02:30:04;;;;;;;15.83;12.20;;;16.10;89.90;;;;;;5055793;28;20458;-57
2023/05/21 02:32:31;;;;;;;13.00;11.40;;;16.20;90.00;;;;;;5055638;28;20481;-57
2023/05/21 02:34:58;;;;;;;13.63;12.23;;;16.10;90.40;;;;;;5055574;28;20527;-57
2023/05/21 02:37:26;;;;;;;12.47;11.23;;;16.10;90.20;;;;;;5055304;28;20445;-57
2023/05/21 02:39:53;;;;;;;13.50;12.30;;;16.10;90.70;;;;;;5055548;28;20484;-57
2023/05/21 02:42:21;;;;;;;13.27;11.80;;;16.10;90.20;;;;;;5055543;28;20461;-57
2023/05/21 02:44:48;;;;;;;11.80;10.80;;;16.10;90.10;;;;;;5055174;28;21021;-57
2023/05/21 02:47:16;;;;;;;13.53;11.20;;;16.10;90.30;;;;;;5056276;28;20786;-57
2023/05/21 02:49:43;;;;;;;12.10;10.80;;;16.10;90.30;;;;;;5055096;28;20940;-57
2023/05/21 02:52:09;;;;;;;12.40;11.10;;;16.00;90.50;;;;;;5055261;28;20859;-57
2023/05/21 02:54:36;;;;;;;11.97;10.87;;;16.10;90.60;;;;;;5055189;28;20893;-57
2023/05/21 02:57:03;;;;;;;10.87;9.87;;;16.00;90.40;;;;;;5055256;28;20808;-57
2023/05/21 02:59:29;;;;;;;12.93;11.63;;;16.10;90.40;;;;;;5055271;28;20523;-57
2023/05/21 03:01:56;;;;;;;12.67;10.60;;;16.00;90.40;;;;;;5055307;28;20445;-57
2023/05/21 03:04:27;;;;;;;10.77;9.80;;;16.10;90.40;;;;;;5055127;28;20452;-56
2023/05/21 03:06:54;;;;;;;10.33;9.33;;;16.00;90.40;;;;;;5055165;28;20426;-57
2023/05/21 03:09:21;;;;;;;11.63;10.53;;;16.00;90.40;;;;;;5054696;28;20963;-57
2023/05/21 03:11:48;;;;;;;11.77;10.23;;;16.00;90.50;;;;;;5055019;28;20585;-56
2023/05/21 03:14:15;;;;;;;10.47;9.47;;;16.00;90.60;;;;;;5055106;28;20792;-57
2023/05/21 03:16:42;;;;;;;10.87;9.87;;;16.00;90.70;;;;;;5054944;28;20469;-57
2023/05/21 03:19:10;;;;;;;9.67;8.77;;;16.00;90.80;;;;;;5055051;28;20449;-57
2023/05/21 03:21:38;;;;;;;10.57;9.57;;;16.00;90.90;;;;;;5055025;28;20500;-57
2023/05/21 03:24:05;;;;;;;10.80;9.70;;;15.90;90.90;;;;;;5054757;28;20859;-56
2023/05/21 03:26:32;;;;;;;10.93;8.77;;;16.00;91.00;;;;;;5054607;28;20983;-56
2023/05/21 03:29:00;;;;;;;10.23;9.23;;;15.90;91.00;;;;;;5054537;28;20544;-57
2023/05/21 03:31:27;;;;;;;9.93;8.93;;;16.00;91.20;;;;;;5054794;28;20477;-57
2023/05/21 03:33:53;;;;;;;10.03;9.07;;;15.90;91.10;;;;;;5054471;28;20947;-56
2023/05/21 03:36:20;;;;;;;9.17;8.30;;;16.00;91.20;;;;;;5055434;28;20462;-57
2023/05/21 03:38:48;;;;;;;10.20;9.20;;;15.90;91.20;;;;;;5056234;28;20943;-57
2023/05/21 03:41:15;;;;;;;10.07;8.77;;;15.90;91.20;;;;;;5055776;28;20449;-56
2023/05/21 03:43:42;;;;;;;10.37;9.23;;;15.90;91.30;;;;;;5054649;28;20473;-57
2023/05/21 03:46:08;;;;;;;9.40;8.50;;;15.90;91.40;;;;;;5054316;28;20831;-57
2023/05/21 03:48:35;;;;;;;9.77;8.77;;;15.90;91.60;;;;;;5054299;28;20472;-57
2023/05/21 03:51:02;;;;;;;9.53;8.17;;;15.90;91.60;;;;;;5054445;28;20468;-57
2023/05/21 03:53:29;;;;;;;9.73;8.83;;;15.90;91.70;;;;;;5054089;28;20544;-57
2023/05/21 03:55:57;;;;;;;13.40;10.13;;;15.90;91.80;;;;;;5054030;28;20457;-56
2023/05/21 03:58:25;;;;;;;9.43;8.10;;;16.00;91.70;;;;;;5053747;28;20966;-56
2023/05/21 04:00:52;;;;;;;9.70;8.70;;;15.90;91.70;;;;;;5053991;28;20479;-57
2023/05/21 04:03:18;;;;;;;11.23;9.07;;;16.00;91.90;;;;;;5053998;28;20445;-57
2023/05/21 04:05:45;;;;;;;9.57;8.77;;;16.00;92.30;;;;;;5053789;28;20474;-56
2023/05/21 04:08:12;;;;;;;8.10;7.30;;;16.00;92.00;;;;;;5053725;28;20464;-57
2023/05/21 04:10:39;;;;;;;8.43;7.53;;;16.00;92.00;;;;;;5053840;28;20433;-56
2023/05/21 04:13:07;;;;;;;9.40;8.50;;;16.00;92.10;;;;;;5053412;28;20488;-57
2023/05/21 04:15:34;;;;;;;8.90;7.97;;;16.00;92.10;;;;;;5053505;28;20469;-56
2023/05/21 04:18:00;;;;;;;8.37;7.57;;;16.00;92.20;;;;;;5053748;28;20540;-57
2023/05/21 04:20:27;;;;;;;7.93;7.23;;;16.00;92.20;;;;;;5053363;28;20967;-57
2023/05/21 04:22:54;;;;;;;10.50;8.43;;;16.00;92.30;;;;;;5053725;28;20503;-57
2023/05/21 04:25:22;;;;;;;8.37;7.33;;;16.00;92.40;;;;;;5053600;28;20470;-56
2023/05/21 04:27:49;;;;;;;8.37;7.53;;;16.00;92.40;;;;;;5053587;28;20943;-57
2023/05/21 04:30:18;;;;;;;8.57;7.67;;;16.00;92.30;;;;;;5053741;28;20446;-57
2023/05/21 04:32:46;;;;;;;9.90;7.83;;;16.10;92.50;;;;;;5053547;28;20566;-57
2023/05/21 04:35:14;;;;;;;9.13;8.03;;;16.10;92.40;;;;;;5053407;28;20473;-57
2023/05/21 04:37:44;;;;;;;8.80;8.00;;;16.10;92.30;;;;;;5053489;28;20449;-57
2023/05/21 04:40:13;;;;;;;8.70;7.80;;;16.10;92.30;;;;;;5053403;28;20955;-57
2023/05/21 04:42:40;;;;;;;8.30;7.60;;;16.20;92.50;;;;;;5053388;28;20571;-57
2023/05/21 04:45:07;;;;;;;8.17;7.40;;;16.20;92.50;;;;;;5053027;28;20984;-57
2023/05/21 04:47:36;;;;;;;9.03;8.13;;;16.20;92.60;;;;;;5053326;28;20445;-57
2023/05/21 04:50:03;;;;;;;8.23;7.50;;;16.30;92.60;;;;;;5053598;28;20540;-57
2023/05/21 04:52:30;;;;;;;8.63;7.73;;;16.30;92.60;;;;;;5052890;28;21014;-57
2023/05/21 04:54:57;;;;;;;8.70;7.80;;;16.40;92.60;;;;;;5053201;28;20457;-57
2023/05/21 04:57:24;;;;;;;8.23;7.53;;;16.40;92.50;;;;;;5053188;28;20445;-57
2023/05/21 04:59:51;;;;;;;8.70;7.80;;;16.40;92.40;;;;;;5054069;28;20488;-57
2023/05/21 05:02:18;;;;;;;8.87;7.50;;;16.50;92.80;;;;;;5053270;28;20450;-57
2023/05/21 05:04:46;;;;;;;8.20;7.40;;;16.50;92.20;;;;;;5053100;28;20472;-57
2023/05/21 05:07:13;;;;;;;8.20;7.47;;;16.50;92.20;;;;;;5052816;28;20982;-57
2023/05/21 05:09:40;;;;;;;8.57;7.37;;;16.60;92.20;;;;;;5052864;28;20499;-57
2023/05/21 05:12:07;;;;;;;7.60;6.90;;;16.60;92.00;;;;;;5052868;28;20849;-56
2023/05/21 05:14:34;;;;;;;9.20;8.20;;;16.60;91.90;;;;;;5053019;28;20458;-57
2023/05/21 05:17:01;;;;;;;9.13;8.30;;;16.70;92.00;;;;;;5053182;28;20453;-58
2023/05/21 05:19:28;;;;;;;8.23;7.40;;;16.70;92.00;;;;;;5053027;28;20457;-57
2023/05/21 05:21:56;;;;;;;8.27;7.47;;;16.80;91.80;;;;;;5053087;28;20440;-57
2023/05/21 05:24:23;;;;;;;8.80;8.00;;;16.80;91.70;;;;;;5052925;28;20454;-57
2023/05/21 05:26:49;;;;;;;8.03;7.03;;;16.80;91.70;;;;;;5052982;28;20820;-57
2023/05/21 05:29:16;;;;;;;7.90;7.00;;;16.90;91.60;;;;;;5052922;28;20835;-57
2023/05/21 05:31:43;;;;;;;8.33;7.60;;;16.90;91.40;;;;;;5052920;28;20457;-57
2023/05/21 05:34:09;;;;;;;9.90;7.60;;;17.00;91.40;;;;;;5052923;28;20472;-57
2023/05/21 05:36:36;;;;;;;7.90;7.20;;;17.00;91.40;;;;;;5052529;28;21036;-57
2023/05/21 05:39:04;;;;;;;7.53;6.80;;;17.10;91.40;;;;;;5052972;28;20544;-58
2023/05/21 05:41:31;;;;;;;9.23;8.23;;;17.10;91.30;;;;;;5052884;28;20879;-57
2023/05/21 05:43:58;;;;;;;8.30;7.50;;;17.10;91.20;;;;;;5052784;28;20456;-57
2023/05/21 05:46:24;;;;;;;8.87;7.90;;;17.10;91.20;;;;;;5052715;28;20478;-57
2023/05/21 05:48:51;;;;;;;8.80;8.00;;;17.20;91.20;;;;;;5052691;28;20456;-57
2023/05/21 05:51:18;;;;;;;8.10;7.30;;;17.20;91.20;;;;;;5052679;28;20449;-57
2023/05/21 05:53:44;;;;;;;8.63;7.77;;;17.20;91.10;;;;;;5052610;28;20481;-57
2023/05/21 05:56:13;;;;;;;8.23;7.53;;;17.30;91.10;;;;;;5052677;28;20880;-57
2023/05/21 05:58:39;;;;;;;8.33;7.53;;;17.30;91.00;;;;;;5052652;28;20503;-57
2023/05/21 06:01:06;;;;;;;10.13;8.13;;;17.40;90.80;;;;;;5055098;28;20522;-57
2023/05/21 06:03:33;;;;;;;8.77;7.97;;;17.40;90.90;;;;;;5056312;28;20445;-57
2023/05/21 06:05:59;;;;;;;8.50;7.60;;;17.50;91.00;;;;;;5056162;28;20465;-57
2023/05/21 06:08:26;;;;;;;9.07;7.97;;;17.50;90.90;;;;;;5055941;28;20465;-57
2023/05/21 06:10:53;;;;;;;10.20;9.13;;;17.60;90.70;;;;;;5056158;28;20453;-57
2023/05/21 06:13:21;;;;;;;8.77;7.93;;;17.70;90.60;;;;;;5056839;28;20485;-57
2023/05/21 06:15:47;;;;;;;9.23;8.30;;;17.70;90.50;;;;;;5055973;28;20469;-57
2023/05/21 06:18:14;;;;;;;8.57;7.70;;;17.80;90.30;;;;;;5056049;28;20449;-57
2023/05/21 06:20:41;;;;;;;8.80;8.00;;;17.90;90.10;;;;;;5055894;28;20442;-57
2023/05/21 06:23:08;;;;;;;8.97;8.10;;;18.00;89.70;;;;;;5055630;28;20974;-57
2023/05/21 06:25:35;;;;;;;8.53;7.80;;;18.10;89.10;;;;;;5055793;28;20501;-58
2023/05/21 06:28:01;;;;;;;9.40;8.60;;;18.20;88.80;;;;;;5055774;28;20499;-58
2023/05/21 06:30:29;;;;;;;7.67;6.83;;;18.30;88.90;;;;;;5055449;28;20448;-57
2023/05/21 06:32:56;;;;;;;8.57;7.83;;;18.40;88.30;;;;;;5055604;28;20516;-58
2023/05/21 06:35:23;;;;;;;9.00;8.20;;;18.50;87.80;;;;;;5055435;28;20500;-57
2023/05/21 06:37:50;;;;;;;9.60;8.80;;;18.60;87.40;;;;;;5056511;28;20461;-58
2023/05/21 06:40:17;;;;;;;8.90;7.83;;;18.60;86.80;;;;;;5055352;28;20940;-57
2023/05/21 06:42:43;;;;;;;10.13;8.20;;;18.70;86.50;;;;;;5055168;28;20935;-57
2023/05/21 06:45:11;;;;;;;9.40;8.50;;;18.80;86.30;;;;;;5055424;28;20469;-57
2023/05/21 06:47:39;;;;;;;9.27;8.30;;;18.80;85.90;;;;;;5055481;28;20453;-57
2023/05/21 06:50:06;;;;;;;9.00;8.10;;;18.90;86.00;;;;;;5055354;28;20459;-57
2023/05/21 06:52:33;;;;;;;8.13;7.50;;;19.00;85.70;;;;;;5055566;28;20473;-57
2023/05/21 06:55:00;;;;;;;8.93;8.13;;;19.10;85.20;;;;;;5055403;28;20465;-57
2023/05/21 06:57:26;;;;;;;9.30;8.50;;;19.20;85.00;;;;;;5055243;28;20449;-57
2023/05/21 06:59:53;;;;;;;9.23;8.33;;;19.30;85.00;;;;;;5055245;28;20457;-57
2023/05/21 07:02:20;;;;;;;7.90;7.20;;;19.40;84.90;;;;;;5055218;28;20449;-58
2023/05/21 07:04:48;;;;;;;8.30;7.50;;;19.60;84.10;;;;;;5054629;28;20812;-56
2023/05/21 07:07:14;;;;;;;9.90;9.00;;;19.80;83.40;;;;;;5055090;28;20460;-57
2023/05/21 07:09:41;;;;;;;9.23;8.33;;;20.00;83.20;;;;;;5054748;28;20464;-58
2023/05/21 07:12:08;;;;;;;9.33;8.47;;;20.20;82.40;;;;;;5053786;28;20457;-58
2023/05/21 07:14:34;;;;;;;9.20;8.40;;;20.40;81.40;;;;;;5054793;28;20449;-57
2023/05/21 07:17:01;;;;;;;9.20;8.40;;;20.50;79.80;;;;;;5054876;28;20456;-57
2023/05/21 07:19:28;;;;;;;8.47;7.67;;;20.80;78.90;;;;;;5054859;28;20446;-58
2023/05/21 07:21:57;;;;;;;7.67;7.00;;;20.90;78.00;;;;;;5054793;28;20460;-58
2023/05/21 07:24:26;;;;;;;7.63;7.03;;;21.10;77.20;;;;;;5054693;28;20446;-58
2023/05/21 07:26:52;;;;;;;9.43;8.63;;;21.20;76.80;;;;;;5054716;28;20496;-58
2023/05/21 07:29:19;;;;;;;10.37;9.33;;;21.30;76.20;;;;;;5054931;28;20453;-58
2023/05/21 07:31:46;;;;;;;9.53;8.70;;;21.40;75.60;;;;;;5054798;28;20453;-58
2023/05/21 07:34:13;;;;;;;9.70;8.77;;;21.50;75.30;;;;;;5054197;28;20860;-58
2023/05/21 07:36:39;;;;;;;10.03;9.13;;;21.70;75.20;;;;;;5054477;28;20557;-57
2023/05/21 07:39:07;;;;;;;9.00;8.30;;;21.70;74.60;;;;;;5054472;28;20454;-58
2023/05/21 07:41:34;;;;;;;9.53;8.63;;;21.80;74.40;;;;;;5054925;28;20445;-58
2023/05/21 07:44:01;;;;;;;10.70;9.80;;;21.80;74.30;;;;;;5054329;28;20503;-58
2023/05/21 07:46:28;;;;;;;9.57;8.70;;;21.90;73.60;;;;;;5054308;28;20501;-58
2023/05/21 07:48:54;;;;;;;9.10;8.30;;;21.90;72.90;;;;;;5054323;28;20445;-58
2023/05/21 07:51:21;;;;;;;10.00;8.37;;;22.00;73.00;;;;;;5054236;28;20446;-57
2023/05/21 07:53:48;;;;;;;9.20;8.40;;;22.20;72.80;;;;;;5054185;28;20482;-56
2023/05/21 07:56:16;;;;;;;10.10;9.30;;;22.30;72.50;;;;;;5054948;28;20465;-56
2023/05/21 07:58:44;;;;;;;9.13;8.27;;;22.50;72.10;;;;;;5054080;28;20816;-56
2023/05/21 08:01:11;;;;;;;9.87;8.97;;;22.60;71.40;;;;;;5054057;28;20872;-57
2023/05/21 08:03:38;;;;;;;8.87;8.17;;;22.80;70.80;;;;;;5054161;28;20507;-57
2023/05/21 08:06:05;;;;;;;8.60;7.90;;;22.90;69.70;;;;;;5054114;28;20469;-57
2023/05/21 08:08:32;;;;;;;8.17;7.47;;;23.10;68.90;;;;;;5053694;28;20507;-56
2023/05/21 08:11:00;;;;;;;9.20;8.40;;;23.30;68.50;;;;;;5053858;28;20454;-56
2023/05/21 08:13:28;;;;;;;9.30;8.40;;;23.40;67.30;;;;;;5053813;28;20482;-57
2023/05/21 08:15:55;;;;;;;8.70;7.90;;;23.60;67.10;;;;;;5053795;28;20477;-57
2023/05/21 08:18:22;;;;;;;9.63;8.80;;;23.80;66.50;;;;;;5053826;28;20460;-57
2023/05/21 08:20:49;;;;;;;9.10;8.40;;;24.00;65.90;;;;;;5053664;28;20449;-57
2023/05/21 08:23:15;;;;;;;8.30;7.60;;;24.20;64.90;;;;;;5053316;28;20541;-57
2023/05/21 08:25:42;;;;;;;10.00;9.17;;;24.40;65.20;;;;;;5053239;28;21040;-57
2023/05/21 08:28:09;;;;;;;9.07;8.37;;;24.60;64.10;;;;;;5053666;28;20490;-57
2023/05/21 08:30:37;;;;;;;8.00;7.30;;;24.80;63.60;;;;;;5053253;28;20943;-57
2023/05/21 08:33:04;;;;;;;9.53;8.63;;;24.90;62.50;;;;;;5054207;28;20485;-57
2023/05/21 08:35:30;;;;;;;8.77;7.87;;;25.20;61.60;;;;;;5053476;28;20522;-57
2023/05/21 08:37:57;;;;;;;9.20;8.40;;;25.60;61.50;;;;;;5053516;28;20453;-57
2023/05/21 08:40:24;;;;;;;9.33;8.50;;;25.90;59.90;;;;;;5053135;28;20947;-57
2023/05/21 08:42:51;;;;;;;10.00;9.20;;;26.10;58.80;;;;;;5053381;28;20453;-57
2023/05/21 08:45:21;;;;;;;9.30;8.50;;;26.40;57.80;;;;;;5053406;28;20465;-57
2023/05/21 08:47:55;;;;;;;9.40;8.43;;;26.70;57.10;;;;;;5052845;28;20860;-56
2023/05/21 08:50:23;;;;;;;8.30;7.50;;;27.00;56.50;;;;;;5053379;28;20430;-57
2023/05/21 08:52:50;;;;;;;10.23;9.17;;;27.20;55.20;;;;;;5053222;28;20445;-57
2023/05/21 08:55:17;;;;;;;9.33;8.40;;;27.30;54.60;;;;;;5053138;28;20473;-57
2023/05/21 08:57:44;;;;;;;9.63;8.67;;;27.50;53.90;;;;;;5053207;28;20468;-57
2023/05/21 09:00:13;;;;;;;8.70;8.10;;;27.50;52.90;;;;;;5053282;28;20461;-57
2023/05/21 09:02:42;;;;;;;9.90;9.10;;;27.50;53.00;;;;;;5052857;28;21005;-57
2023/05/21 09:05:11;;;;;;;10.20;9.33;;;27.40;52.70;;;;;;5053032;28;20477;-57
2023/05/21 09:07:44;;;;;;;10.10;9.30;;;27.40;53.00;;;;;;5052897;28;20449;-57
2023/05/21 09:10:13;;;;;;;9.40;8.67;;;27.40;52.90;;;;;;5052850;28;20493;-57
2023/05/21 09:12:40;;;;;;;10.83;9.83;;;27.30;52.60;;;;;;5053049;28;20454;-57
2023/05/21 09:15:07;;;;;;;10.77;8.77;;;27.20;52.60;;;;;;5052692;28;20840;-57
2023/05/21 09:17:34;;;;;;;11.10;10.03;;;27.10;52.80;;;;;;5053080;28;20472;-57
2023/05/21 09:20:12;;;;;;;11.70;10.60;;;27.00;52.90;;;;;;5053055;28;20441;-57
2023/05/21 09:22:41;;;;;;;10.20;9.30;;;27.00;53.10;;;;;;5053143;28;20768;-57
2023/05/21 09:25:10;;;;;;;9.63;8.83;;;27.10;53.70;;;;;;5052939;28;20512;-56
2023/05/21 09:27:37;;;;;;;11.47;10.27;;;27.20;53.80;;;;;;5053012;28;20453;-57
2023/05/21 09:30:05;;;;;;;9.90;9.10;;;27.40;53.60;;;;;;5053194;28;20445;-57
2023/05/21 09:32:32;;;;;;;10.23;9.23;;;27.70;52.70;;;;;;5053077;28;20460;-57
2023/05/21 09:35:12;;;;;;;10.17;9.30;;;28.00;52.50;;;;;;5053136;28;20979;-57
2023/05/21 09:37:39;;;;;;;10.00;9.10;;;28.30;52.20;;;;;;5056380;28;20915;-56
2023/05/21 09:40:14;;;;;;;10.93;10.03;;;28.70;51.50;;;;;;5056802;28;20448;-57
2023/05/21 09:42:41;;;;;;;10.23;9.20;;;29.10;50.50;;;;;;5056541;28;20506;-57
2023/05/21 09:45:09;;;;;;;11.73;10.63;;;29.30;49.80;;;;;;5057221;28;20468;-57
2023/05/21 09:47:42;;;;;;;11.37;10.37;;;29.60;48.50;;;;;;5056654;28;20456;-57
2023/05/21 09:50:11;;;;;;;10.43;9.43;;;29.60;47.20;;;;;;5056631;28;20433;-56
2023/05/21 09:52:38;;;;;;;12.40;11.20;;;29.70;47.20;;;;;;5056540;28;20492;-57
2023/05/21 09:55:05;;;;;;;11.40;10.40;;;29.70;47.20;;;;;;5056322;28;20497;-57
2023/05/21 09:57:32;;;;;;;12.70;11.60;;;29.70;46.50;;;;;;5056253;28;21101;-57
2023/05/21 09:59:59;;;;;;;12.37;11.40;;;29.70;46.60;;;;;;5056042;28;20455;-57
2023/05/21 10:02:26;;;;;;;12.43;11.13;;;29.70;46.70;;;;;;5056337;28;20472;-57
2023/05/21 10:04:53;;;;;;;13.43;12.20;;;29.70;46.80;;;;;;5056243;28;20465;-57
2023/05/21 10:07:24;;;;;;;11.70;10.70;;;29.60;46.00;;;;;;5056199;28;20535;-57
2023/05/21 10:09:52;;;;;;;11.93;10.83;;;29.50;46.00;;;;;;5055792;28;20468;-57
2023/05/21 10:12:22;;;;;;;12.53;11.43;;;29.50;46.30;;;;;;5056074;28;20437;-57
2023/05/21 10:14:51;;;;;;;11.37;10.30;;;29.50;46.90;;;;;;5055968;28;20493;-57
2023/05/21 10:17:19;;;;;;;11.10;10.00;;;29.50;46.50;;;;;;5055753;28;20951;-57
2023/05/21 10:19:47;;;;;;;11.97;11.00;;;29.50;46.70;;;;;;5055940;28;20455;-57
2023/05/21 10:22:15;;;;;;;12.17;11.17;;;29.50;46.50;;;;;;5056548;28;20857;-57
2023/05/21 10:24:44;;;;;;;12.90;11.80;;;29.40;46.30;;;;;;5056435;28;20474;-57
2023/05/21 10:27:12;;;;;;;12.20;11.20;;;29.40;46.50;;;;;;5056074;28;20481;-57
2023/05/21 10:29:40;;;;;;;12.53;11.33;;;29.40;46.40;;;;;;5055937;28;20457;-57
2023/05/21 10:32:08;;;;;;;14.10;12.80;;;29.30;47.00;;;;;;5055841;28;20457;-57
2023/05/21 10:34:37;;;;;;;13.87;12.57;;;29.30;47.00;;;;;;5055623;28;20488;-57
2023/05/21 10:37:08;;;;;;;12.30;11.30;;;29.30;47.00;;;;;;5056576;28;20452;-57
2023/05/21 10:39:35;;;;;;;13.00;11.90;;;29.30;47.00;;;;;;5055708;28;20438;-57
2023/05/21 10:42:16;;;;;;;13.37;12.30;;;29.40;46.20;;;;;;5055563;28;20499;-57
2023/05/21 10:45:00;;;;;;;15.07;13.67;;;29.50;46.60;;;;;;5055582;28;20468;-57
2023/05/21 10:47:43;;;;;;;12.63;11.53;;;29.60;46.30;;;;;;5055017;28;20938;-57
2023/05/21 10:50:26;;;;;;;12.80;11.80;;;30.00;46.30;;;;;;5055186;28;20808;-57
2023/05/21 10:53:06;;;;;;;12.60;11.50;;;30.70;45.70;;;;;;5055431;28;20440;-57
2023/05/21 10:55:46;;;;;;;14.17;12.70;;;31.30;43.90;;;;;;5055234;28;20488;-57
2023/05/21 10:58:32;;;;;;;13.23;12.13;;;31.80;42.50;;;;;;5055328;28;20422;-58
2023/05/21 11:01:01;;;;;;;16.17;14.70;;;32.40;41.20;;;;;;5055039;28;20440;-57
2023/05/21 11:03:29;;;;;;;14.40;13.30;;;32.80;39.70;;;;;;5055225;28;20472;-58
2023/05/21 11:05:57;;;;;;;14.83;13.53;;;32.90;39.00;;;;;;5054802;28;20844;-58
2023/05/21 11:08:25;;;;;;;15.97;14.67;;;33.00;39.30;;;;;;5054900;28;20471;-56
2023/05/21 11:10:53;;;;;;;13.33;12.17;;;33.00;39.10;;;;;;5054559;28;20868;-56
2023/05/21 11:13:22;;;;;;;15.10;13.70;;;32.90;38.90;;;;;;5054973;28;20472;-57
2023/05/21 11:16:06;;;;;;;16.37;14.80;;;33.20;39.50;;;;;;5054842;28;20568;-57
2023/05/21 11:19:01;;;;;;;15.03;13.73;;;33.80;37.90;;;;;;5063951;28;20518;-55
2023/05/21 11:21:34;;;;;;;15.73;14.53;;;34.10;37.40;;;;;;5054962;28;20445;-57
2023/05/21 11:24:07;;;;;;;17.07;15.60;;;34.30;36.50;;;;;;5054699;28;20449;-56
2023/05/21 11:27:05;;;;;;;15.03;13.63;;;34.70;35.40;;;;;;5054650;28;20477;-56
2023/05/21 11:29:44;;;;;;;15.77;14.47;;;35.20;35.00;;;;;;5054795;28;20495;-56
2023/05/21 11:32:13;;;;;;;14.83;13.53;;;35.60;33.40;;;;;;5054713;28;20193;-57
2023/05/21 11:34:42;;;;;;;12.15;11.15;;;36.00;33.50;;;;;;5054504;28;20240;-57
2023/05/21 11:37:28;;;;;;;15.15;13.95;;;36.70;33.10;;;;;;5054547;28;20206;-57
2023/05/21 11:39:55;;;;;;;15.27;14.05;;;37.30;32.00;;;;;;5054423;28;20289;-56
2023/05/21 11:42:32;;;;;;;17.35;15.77;;;37.80;30.60;;;;;;5054449;28;20207;-57
2023/05/21 11:45:02;;;;;;;14.35;13.13;;;38.10;28.70;;;;;;5054373;28;20313;-57
2023/05/21 11:47:30;;;;;;;13.48;12.27;;;38.30;29.60;;;;;;5055438;28;20225;-57
2023/05/21 11:49:58;;;;;;;13.02;11.75;;;38.40;28.60;;;;;;5054275;28;20218;-57
2023/05/21 11:52:25;;;;;;;10.90;10.10;;;38.80;28.90;;;;;;5054325;28;20260;-57
2023/05/21 11:54:54;;;;;;;13.85;12.65;;;39.20;28.60;;;;;;5054093;28;20226;-57
2023/05/21 11:57:25;;;;;;;14.27;13.07;;;39.70;27.90;;;;;;5053787;28;20281;-58
2023/05/21 11:59:52;;;;;;;12.25;11.30;;;40.10;27.40;;;;;;5054030;28;20226;-57
2023/05/21 12:02:21;;;;;;;13.07;12.10;;;40.30;27.00;;;;;;5053716;28;20687;-57
2023/05/21 12:04:50;;;;;;;12.85;11.77;;;40.70;25.70;;;;;;5054251;28;20218;-57
2023/05/21 12:07:18;;;;;;;13.85;12.80;;;41.00;26.40;;;;;;5053803;28;20672;-57
2023/05/21 12:09:46;;;;;;;14.93;12.75;;;41.20;25.80;;;;;;5053480;28;20245;-56
2023/05/21 12:12:15;;;;;;;12.05;11.10;;;41.40;25.80;;;;;;5053961;28;20202;-57
2023/05/21 12:14:44;;;;;;;11.65;10.75;;;41.70;25.10;;;;;;5054054;28;20222;-57
2023/05/21 12:17:12;;;;;;;12.20;10.98;;;41.90;24.90;;;;;;5053965;28;20241;-58
2023/05/21 12:19:41;;;;;;;13.82;12.82;;;42.30;25.00;;;;;;5053576;28;20713;-58
2023/05/21 12:22:08;;;;;;;11.07;10.23;;;42.70;24.30;;;;;;5054118;28;20552;-57
2023/05/21 12:24:36;;;;;;;12.15;11.25;;;42.90;23.80;;;;;;5053062;28;20552;-57
2023/05/21 12:27:08;;;;;;;12.73;11.80;;;43.30;23.60;;;;;;5053501;28;20206;-57
2023/05/21 12:29:36;;;;;;;12.60;11.32;;;43.60;23.80;;;;;;5055034;28;20709;-58
2023/05/21 12:32:05;;;;;;;10.98;10.07;;;43.80;23.20;;;;;;5054870;28;20616;-58
2023/05/21 12:34:41;;;;;;;12.20;11.18;;;43.90;23.60;;;;;;5053860;28;20309;-58
2023/05/21 12:37:08;;;;;;;12.30;11.20;;;44.00;22.50;;;;;;5053510;28;20252;-58
2023/05/21 12:39:39;;;;;;;11.63;10.73;;;44.20;22.70;;;;;;5053122;28;20668;-58
2023/05/21 12:42:06;;;;;;;11.52;10.63;;;44.20;22.00;;;;;;5053015;28;20699;-58